Time;durP1;ratioP1;P1;durP2;ratioP2;P2;SDS_P1;SDS_P2;PMS_P1;PMS_P2;Temp;Humidity;BMP_temperature;BMP_pressure;BME280_temperature;BME280_humidity;BME280_pressure;Samples;Min_cycle;Max_cycle;Signal;HPM_P1;HPM_P2
2022/02/09 00:09:25;;;;;;;2.40;1.48;;;12.60;70.10;;;;;;5026875;28;20488;-81
2022/02/09 00:14:28;;;;;;;2.30;0.95;;;12.60;70.10;;;;;;5026368;28;20590;-83
2022/02/09 00:20:58;;;;;;;1.08;0.80;;;12.60;70.20;;;;;;5041765;28;20037;-81
2022/02/09 00:25:29;;;;;;;0.98;0.73;;;12.50;70.10;;;;;;5026800;28;20037;-82
2022/02/09 00:38:17;;;;;;;0.98;0.55;;;12.50;70.30;;;;;;5026693;28;20026;-81
2022/02/09 01:56:23;;;;;;;1.08;0.63;;;12.00;70.30;;;;;;5048705;28;20637;-83
2022/02/09 01:58:50;;;;;;;2.38;0.93;;;12.00;70.30;;;;;;5048229;28;20537;-81
2022/02/09 02:01:16;;;;;;;0.88;0.60;;;12.00;70.40;;;;;;5048673;28;20025;-82
2022/02/09 02:03:45;;;;;;;1.63;0.85;;;12.00;70.40;;;;;;5047523;28;20029;-82
2022/02/09 02:06:16;;;;;;;1.00;0.55;;;11.90;70.30;;;;;;5047094;28;20519;-81
2022/02/09 02:08:43;;;;;;;2.47;1.33;;;11.90;70.30;;;;;;5042262;28;20054;-81
2022/02/09 02:19:00;;;;;;;1.42;0.80;;;11.80;70.30;;;;;;5027842;28;20124;-81
2022/02/09 02:21:49;;;;;;;1.17;0.73;;;11.80;70.40;;;;;;5028633;28;20883;-80
2022/02/09 02:24:36;;;;;;;3.03;1.33;;;11.70;70.40;;;;;;5027978;28;20040;-81
2022/02/09 02:59:37;;;;;;;1.42;0.75;;;11.70;70.50;;;;;;5050982;28;20037;-81
2022/02/09 03:13:04;;;;;;;1.45;1.35;;;11.60;70.40;;;;;;5050847;28;20044;-81
2022/02/09 03:15:43;;;;;;;1.90;0.80;;;11.60;70.40;;;;;;5049678;28;20039;-81
2022/02/09 03:50:29;;;;;;;1.02;0.65;;;11.40;70.40;;;;;;5038745;28;20440;-81
2022/02/09 03:53:46;;;;;;;1.17;0.73;;;11.40;70.40;;;;;;5060802;28;20037;-81
2022/02/09 03:58:22;;;;;;;1.00;0.60;;;11.40;70.40;;;;;;5054328;28;20025;-82
2022/02/09 04:00:48;;;;;;;1.08;0.65;;;11.40;70.40;;;;;;5051775;28;20029;-81
2022/02/09 04:03:24;;;;;;;0.85;0.70;;;11.40;70.50;;;;;;5051180;28;20492;-81
2022/02/09 04:05:50;;;;;;;1.90;0.73;;;11.40;70.50;;;;;;5032677;28;20039;-80
2022/02/09 04:08:19;;;;;;;0.82;0.70;;;11.40;70.50;;;;;;5050237;28;20102;-81
2022/02/09 04:11:00;;;;;;;1.15;0.60;;;11.40;70.50;;;;;;5032093;28;20029;-83
2022/02/09 04:16:06;;;;;;;0.55;0.55;;;11.40;70.60;;;;;;5050196;28;20071;-83
2022/02/09 04:40:26;;;;;;;1.15;0.65;;;11.30;70.60;;;;;;5055220;28;20021;-82
2022/02/09 04:46:25;;;;;;;0.63;0.60;;;11.30;70.60;;;;;;5017303;28;20171;-82
2022/02/09 05:22:58;;;;;;;0.82;0.60;;;11.20;70.50;;;;;;5034681;28;20039;-81
2022/02/09 05:28:03;;;;;;;1.17;0.80;;;11.20;70.40;;;;;;5052401;28;20040;-82
2022/02/09 05:30:30;;;;;;;0.75;0.70;;;11.30;70.60;;;;;;5034675;28;20021;-81
2022/02/09 05:32:56;;;;;;;1.13;0.63;;;11.20;70.40;;;;;;5051971;28;20032;-81
2022/02/09 05:35:22;;;;;;;1.45;0.60;;;11.20;70.40;;;;;;5028701;28;20303;-81
2022/02/09 05:37:50;;;;;;;2.00;0.60;;;11.20;70.50;;;;;;5041071;28;20053;-81
2022/02/09 05:40:17;;;;;;;1.05;0.70;;;11.20;70.40;;;;;;5024668;28;20022;-80
2022/02/09 05:42:43;;;;;;;2.58;0.70;;;11.20;70.40;;;;;;5041297;28;20025;-80
2022/02/09 05:45:11;;;;;;;0.85;0.60;;;11.20;70.40;;;;;;5041987;28;20021;-81
2022/02/09 05:53:04;;;;;;;0.90;0.57;;;11.20;70.50;;;;;;5037520;28;20515;-81
2022/02/09 05:58:10;;;;;;;1.38;0.55;;;11.20;70.40;;;;;;5023048;28;20484;-78
2022/02/09 06:00:37;;;;;;;1.50;0.57;;;11.20;70.40;;;;;;5038826;28;20032;-80
2022/02/09 06:03:03;;;;;;;6.05;2.42;;;11.20;70.40;;;;;;5037164;28;20026;-79
2022/02/09 06:05:31;;;;;;;1.20;0.73;;;11.30;70.60;;;;;;5038451;28;20024;-79
2022/02/09 06:07:57;;;;;;;1.55;0.70;;;11.30;70.60;;;;;;5036102;28;20052;-80
2022/02/09 06:10:28;;;;;;;1.70;0.70;;;11.30;70.60;;;;;;5039299;28;20075;-79
2022/02/09 06:13:47;;;;;;;3.65;2.33;;;11.30;70.60;;;;;;5037007;28;20039;-78
2022/02/09 06:16:05;;;;;;;1.10;0.50;;;11.30;70.50;;;;;;5028647;28;20042;-79
2022/02/09 06:21:19;;;;;;;1.52;0.68;;;11.30;70.50;;;;;;5041631;28;20116;-80
2022/02/09 06:23:47;;;;;;;1.30;0.60;;;11.30;70.50;;;;;;5046827;28;20082;-83
2022/02/09 06:26:13;;;;;;;1.23;0.50;;;11.30;70.50;;;;;;5040290;28;20030;-79
2022/02/09 06:28:39;;;;;;;1.83;0.85;;;11.30;70.50;;;;;;5028338;28;20029;-81
2022/02/09 06:31:05;;;;;;;2.92;0.98;;;11.30;70.50;;;;;;5027947;28;20480;-87
2022/02/09 06:33:31;;;;;;;2.65;0.52;;;11.30;70.50;;;;;;5027553;28;20075;-78
2022/02/09 06:36:00;;;;;;;2.25;0.70;;;11.30;70.50;;;;;;5026966;28;20088;-77
2022/02/09 06:38:27;;;;;;;2.15;0.60;;;11.20;70.30;;;;;;5028171;28;20026;-79
2022/02/09 06:40:55;;;;;;;1.15;0.55;;;11.30;70.50;;;;;;5027919;28;20028;-80
2022/02/09 06:43:22;;;;;;;1.40;0.60;;;11.20;70.30;;;;;;5010953;28;20029;-80
2022/02/09 06:45:48;;;;;;;1.30;0.50;;;11.30;70.50;;;;;;5027980;28;20291;-79
2022/02/09 06:48:16;;;;;;;2.72;0.73;;;11.30;70.50;;;;;;5016449;28;20094;-78
2022/02/09 06:50:48;;;;;;;1.25;0.80;;;11.30;70.50;;;;;;5027843;28;20025;-78
2022/02/09 06:55:59;;;;;;;0.93;0.60;;;11.30;70.50;;;;;;5019479;28;20184;-83
2022/02/09 07:01:00;;;;;;;1.13;0.60;;;11.30;70.40;;;;;;5024002;28;20801;-82
2022/02/09 07:03:26;;;;;;;1.80;0.73;;;11.30;70.40;;;;;;5020359;28;20123;-84
2022/02/09 07:05:52;;;;;;;1.52;0.70;;;11.30;70.40;;;;;;5035131;28;20032;-78
2022/02/09 07:08:18;;;;;;;1.48;0.80;;;11.40;70.50;;;;;;5041280;28;20068;-79
2022/02/09 07:10:45;;;;;;;2.30;0.70;;;11.30;70.30;;;;;;5028257;28;20041;-76
2022/02/09 07:13:11;;;;;;;1.85;0.80;;;11.30;70.30;;;;;;5029563;28;20381;-79
2022/02/09 07:15:44;;;;;;;2.20;0.70;;;11.40;70.50;;;;;;5047534;28;20025;-78
2022/02/09 07:18:13;;;;;;;1.67;0.73;;;11.40;70.50;;;;;;5045013;28;20028;-78
2022/02/09 07:26:06;;;;;;;0.93;0.60;;;11.40;70.70;;;;;;5036596;28;20504;-76
2022/02/09 07:28:36;;;;;;;1.27;0.60;;;11.30;70.30;;;;;;5025118;28;20122;-76
2022/02/09 07:31:04;;;;;;;0.68;0.60;;;11.40;70.40;;;;;;5021481;28;20033;-76
2022/02/09 07:33:30;;;;;;;1.95;0.70;;;11.40;70.40;;;;;;5025972;28;20163;-75
2022/02/09 07:35:56;;;;;;;1.95;0.93;;;11.40;70.40;;;;;;5026859;28;20045;-76
2022/02/09 07:38:22;;;;;;;2.22;0.60;;;11.40;70.40;;;;;;5025848;28;20029;-76
2022/02/09 07:40:51;;;;;;;2.25;1.08;;;11.40;70.40;;;;;;5027365;28;20040;-76
2022/02/09 07:43:23;;;;;;;1.65;0.45;;;11.40;70.40;;;;;;5009127;28;20029;-76
2022/02/09 07:46:23;;;;;;;3.65;0.52;;;11.40;70.40;;;;;;4995553;28;20036;-76
2022/02/09 07:54:01;;;;;;;1.17;0.50;;;11.40;70.30;;;;;;5032366;28;20033;-76
2022/02/09 07:56:42;;;;;;;2.30;0.65;;;11.40;70.30;;;;;;5025966;28;20052;-76
2022/02/09 07:59:15;;;;;;;3.20;1.27;;;11.50;70.40;;;;;;5032017;28;20574;-76
2022/02/09 08:01:42;;;;;;;2.45;0.57;;;11.50;70.40;;;;;;5049255;28;20503;-77
2022/02/09 08:04:09;;;;;;;1.50;0.65;;;11.50;70.30;;;;;;5052087;28;20029;-78
2022/02/09 08:06:36;;;;;;;2.13;1.15;;;11.50;70.30;;;;;;5051477;28;20133;-77
2022/02/09 08:09:09;;;;;;;1.83;0.80;;;11.50;70.20;;;;;;5019510;28;20442;-76
2022/02/09 08:33:06;;;;;;;3.33;0.90;;;11.70;70.20;;;;;;5033021;28;20049;-76
2022/02/09 08:35:33;;;;;;;1.73;0.77;;;11.80;70.40;;;;;;5033598;28;20029;-77
2022/02/09 08:38:00;;;;;;;1.05;0.60;;;11.70;70.10;;;;;;5032278;28;20033;-77
2022/02/09 08:40:27;;;;;;;2.20;0.60;;;11.80;70.30;;;;;;5033187;28;20149;-77
2022/02/09 08:42:54;;;;;;;1.30;0.70;;;11.80;70.30;;;;;;5015338;28;20057;-76
2022/02/09 08:45:20;;;;;;;2.03;0.77;;;11.80;70.20;;;;;;5014821;28;20079;-76
2022/02/09 08:47:47;;;;;;;1.45;0.70;;;11.90;70.30;;;;;;5033301;28;20029;-76
2022/02/09 08:50:15;;;;;;;2.55;0.80;;;11.90;70.30;;;;;;5032518;28;20037;-77
2022/02/09 08:52:41;;;;;;;1.30;0.68;;;11.90;70.20;;;;;;5033018;28;20033;-76
2022/02/09 08:55:09;;;;;;;2.42;0.82;;;11.90;70.20;;;;;;5014723;28;20033;-77
2022/02/09 08:57:35;;;;;;;2.28;0.60;;;12.00;70.30;;;;;;5032861;28;20033;-76
2022/02/09 09:00:13;;;;;;;3.92;0.85;;;12.00;70.20;;;;;;5032670;28;20565;-77
2022/02/09 09:02:44;;;;;;;2.28;0.85;;;12.00;70.20;;;;;;5032549;28;20079;-76
2022/02/09 09:05:20;;;;;;;3.08;0.90;;;12.00;70.20;;;;;;5014805;28;20033;-76
2022/02/09 09:07:52;;;;;;;2.65;0.80;;;12.10;70.30;;;;;;5024921;28;20506;-76
2022/02/09 09:10:30;;;;;;;2.92;0.70;;;12.10;70.20;;;;;;5041954;28;20392;-77
2022/02/09 10:05:45;;;;;;;3.83;1.00;;;13.30;69.80;;;;;;5048666;28;20123;-77
2022/02/09 10:34:27;;;;;;;1.42;0.82;;;13.80;69.80;;;;;;5048140;28;20106;-76
2022/02/09 10:37:06;;;;;;;1.40;0.80;;;13.90;69.90;;;;;;5030135;28;20025;-76
2022/02/09 10:42:21;;;;;;;1.27;0.88;;;14.00;70.00;;;;;;5048896;28;20071;-76
2022/02/09 10:44:51;;;;;;;3.83;1.60;;;14.00;69.90;;;;;;5048376;28;20039;-79
2022/02/09 10:47:34;;;;;;;2.55;1.10;;;14.10;70.00;;;;;;5048688;28;20241;-78
2022/02/09 10:52:54;;;;;;;3.72;1.27;;;14.20;69.90;;;;;;5047622;28;20160;-77
2022/02/09 10:55:46;;;;;;;2.50;1.40;;;14.20;69.90;;;;;;5047611;28;20111;-76
2022/02/09 10:58:14;;;;;;;3.95;1.75;;;14.20;69.90;;;;;;5047689;28;20044;-77
2022/02/09 11:00:45;;;;;;;4.18;1.45;;;14.20;69.90;;;;;;5029983;28;20029;-78
2022/02/09 11:03:16;;;;;;;2.67;1.50;;;14.30;70.00;;;;;;5029620;28;20395;-76
2022/02/09 11:05:47;;;;;;;3.80;1.30;;;14.30;70.00;;;;;;5047680;28;20033;-78
2022/02/09 11:08:13;;;;;;;5.18;2.28;;;14.30;70.00;;;;;;5046915;28;20048;-78
2022/02/09 11:10:39;;;;;;;5.28;2.22;;;14.40;70.10;;;;;;5047478;28;20480;-82
2022/02/09 11:13:11;;;;;;;1.60;1.23;;;14.40;70.10;;;;;;5047952;28;20452;-77
2022/02/09 11:15:41;;;;;;;2.95;1.33;;;14.50;70.10;;;;;;5048419;28;20102;-77
2022/02/09 11:18:15;;;;;;;1.67;1.20;;;14.60;70.20;;;;;;5049916;28;20025;-75
2022/02/09 11:20:57;;;;;;;3.15;1.40;;;14.70;70.10;;;;;;5031334;28;20040;-79
2022/02/09 11:24:00;;;;;;;4.28;0.93;;;14.90;70.20;;;;;;5030887;28;20408;-79
2022/02/09 11:26:37;;;;;;;1.83;0.93;;;15.00;70.00;;;;;;4995149;28;20033;-78
2022/02/09 11:29:34;;;;;;;3.53;1.48;;;15.10;70.00;;;;;;5027080;28;20131;-78
2022/02/09 11:34:56;;;;;;;3.05;1.55;;;15.40;70.00;;;;;;5042613;28;20138;-78
2022/02/09 11:39:53;;;;;;;3.10;1.52;;;15.60;69.90;;;;;;4996499;28;20396;-78
2022/02/09 11:42:44;;;;;;;2.53;1.30;;;15.60;69.80;;;;;;5027295;28;20033;-77
2022/02/09 11:45:59;;;;;;;2.53;1.50;;;15.70;70.00;;;;;;5027160;28;20029;-82
2022/02/09 11:51:58;;;;;;;3.88;1.42;;;15.80;70.00;;;;;;5027098;28;20037;-78
2022/02/09 12:11:25;;;;;;;1.38;0.90;;;16.40;70.10;;;;;;5050985;28;20029;-78
2022/02/09 12:14:02;;;;;;;1.63;0.88;;;16.40;70.00;;;;;;5036009;28;20119;-78
2022/02/09 12:19:04;;;;;;;3.30;1.38;;;16.30;70.00;;;;;;5051154;28;20064;-78
2022/02/09 12:21:49;;;;;;;5.35;1.98;;;16.30;70.10;;;;;;5049165;28;20120;-77
2022/02/09 12:24:20;;;;;;;1.23;0.80;;;16.20;70.00;;;;;;5029855;28;20131;-77
2022/02/09 12:26:55;;;;;;;1.95;1.10;;;16.10;70.00;;;;;;5012343;28;20033;-78
2022/02/09 12:29:22;;;;;;;3.55;0.70;;;16.10;70.10;;;;;;5046835;28;20218;-79
2022/02/09 12:31:48;;;;;;;1.48;0.75;;;16.00;70.10;;;;;;5028892;28;20029;-77
2022/02/09 12:34:25;;;;;;;3.63;0.80;;;16.00;70.20;;;;;;5045740;28;20041;-78
2022/02/09 12:36:55;;;;;;;2.13;1.00;;;15.90;70.10;;;;;;5045887;28;20186;-79
2022/02/09 12:39:23;;;;;;;4.03;1.00;;;15.90;70.20;;;;;;5046173;28;20120;-76
2022/02/09 12:41:50;;;;;;;2.60;1.00;;;15.80;70.10;;;;;;5046161;28;20060;-76
2022/02/09 12:44:24;;;;;;;4.15;1.08;;;15.90;70.60;;;;;;5032189;28;20032;-77
2022/02/09 12:46:50;;;;;;;3.13;1.63;;;15.90;70.80;;;;;;5039517;28;20032;-78
2022/02/09 12:49:20;;;;;;;4.25;1.25;;;16.00;71.00;;;;;;5049604;28;20039;-77
2022/02/09 12:51:48;;;;;;;5.07;0.90;;;15.90;70.70;;;;;;5032142;28;20036;-77
2022/02/09 12:54:16;;;;;;;3.30;1.10;;;16.00;70.80;;;;;;5031874;28;20081;-76
2022/02/09 12:56:46;;;;;;;2.50;1.30;;;16.00;70.80;;;;;;5032442;28;20044;-80
2022/02/09 12:59:16;;;;;;;2.97;0.82;;;16.00;70.80;;;;;;5049293;28;20095;-81
2022/02/09 13:01:47;;;;;;;1.33;0.68;;;16.00;70.80;;;;;;5050142;28;20104;-80
2022/02/09 13:04:36;;;;;;;2.00;1.02;;;16.00;70.80;;;;;;5014816;28;20040;-79
2022/02/09 13:07:13;;;;;;;3.17;1.27;;;16.00;70.80;;;;;;5049484;28;20618;-77
2022/02/09 13:09:50;;;;;;;2.78;0.80;;;16.00;70.70;;;;;;5032071;28;20040;-77
2022/02/09 13:12:26;;;;;;;2.10;0.95;;;16.10;70.80;;;;;;5049461;28;20098;-76
2022/02/09 13:14:59;;;;;;;3.40;0.95;;;16.10;70.70;;;;;;5031662;28;20435;-77
2022/02/09 13:18:13;;;;;;;3.05;0.85;;;16.10;70.70;;;;;;5049475;28;20048;-77
2022/02/09 13:23:40;;;;;;;1.45;0.77;;;16.20;70.70;;;;;;5035083;28;19998;-78
2022/02/09 14:33:57;;;;;;;1.48;0.82;;;15.30;70.50;;;;;;5010664;28;20030;-77
2022/02/09 14:59:33;;;;;;;2.03;0.65;;;15.20;70.50;;;;;;5047919;28;20033;-76
2022/02/09 15:02:03;;;;;;;1.50;0.60;;;15.20;70.50;;;;;;5047058;28;20392;-77
2022/02/09 15:09:45;;;;;;;0.93;0.60;;;15.20;70.50;;;;;;5047480;28;20047;-77
2022/02/09 15:22:32;;;;;;;1.10;0.88;;;15.50;71.10;;;;;;5049030;28;20423;-79
2022/02/09 15:24:58;;;;;;;3.05;0.80;;;15.50;70.50;;;;;;5048467;28;20100;-76
2022/02/09 15:27:26;;;;;;;0.80;0.63;;;15.50;70.40;;;;;;5048013;28;20148;-81
2022/02/09 15:29:53;;;;;;;0.90;0.85;;;15.50;70.40;;;;;;5012535;28;20167;-76
2022/02/09 15:34:52;;;;;;;1.02;0.68;;;15.50;70.40;;;;;;5009561;28;20041;-76
2022/02/09 15:37:27;;;;;;;2.15;0.80;;;15.50;70.50;;;;;;5009868;28;20033;-76
2022/02/09 15:39:56;;;;;;;1.25;0.80;;;15.40;70.50;;;;;;5011680;28;20037;-77
2022/02/09 16:10:32;;;;;;;1.20;1.10;;;15.10;70.70;;;;;;5009213;28;20040;-77
2022/02/09 16:44:44;;;;;;;2.30;1.67;;;14.70;70.60;;;;;;5012903;28;20052;-76
2022/02/09 16:49:55;;;;;;;2.35;1.85;;;14.60;70.60;;;;;;5046326;28;20036;-76
2022/02/09 16:52:36;;;;;;;5.32;2.53;;;14.60;70.70;;;;;;5032110;28;20456;-78
2022/02/09 17:08:40;;;;;;;5.50;3.33;;;14.30;70.80;;;;;;5044447;28;20049;-79
2022/02/09 17:19:19;;;;;;;5.30;3.55;;;14.00;70.70;;;;;;5009190;28;20492;-78
2022/02/09 17:21:45;;;;;;;4.45;3.33;;;14.00;70.70;;;;;;5008586;28;20058;-78
2022/02/09 17:24:13;;;;;;;4.72;3.30;;;14.00;70.80;;;;;;4992341;28;20076;-77
2022/02/09 17:26:39;;;;;;;5.45;3.88;;;13.90;70.80;;;;;;4976349;28;20676;-76
2022/02/09 17:29:05;;;;;;;6.47;4.85;;;13.90;70.90;;;;;;5009070;28;20034;-75
2022/02/09 17:58:14;;;;;;;7.13;4.57;;;13.60;71.50;;;;;;5019317;28;20021;-77
2022/02/09 18:00:40;;;;;;;5.35;3.70;;;13.50;71.60;;;;;;5011458;28;20112;-76
2022/02/09 18:03:06;;;;;;;7.07;3.97;;;13.50;71.60;;;;;;5019476;28;20042;-76
2022/02/09 18:08:03;;;;;;;10.82;4.78;;;13.50;72.20;;;;;;5007198;28;20127;-78
2022/02/09 18:10:49;;;;;;;9.57;4.57;;;13.50;71.80;;;;;;5031554;28;20030;-77
2022/02/09 18:32:12;;;;;;;7.10;3.78;;;13.20;71.80;;;;;;5029215;28;20114;-76
2022/02/09 19:01:58;;;;;;;5.82;3.85;;;12.90;71.80;;;;;;5048064;28;20533;-74
2022/02/09 19:44:48;;;;;;;6.00;3.55;;;12.50;71.60;;;;;;5046975;28;20451;-74
2022/02/09 19:47:08;;;;;;;6.68;3.67;;;12.50;71.70;;;;;;5046723;28;20041;-74
2022/02/09 19:49:51;;;;;;;6.15;4.03;;;12.50;71.70;;;;;;5028919;28;20082;-74
2022/02/09 19:55:23;;;;;;;6.63;5.40;;;12.50;71.70;;;;;;5056803;28;20427;-74
2022/02/09 19:57:53;;;;;;;7.68;4.78;;;12.50;71.70;;;;;;5012201;28;20052;-75
2022/02/09 20:00:21;;;;;;;6.78;3.95;;;12.50;71.70;;;;;;5024310;28;20030;-75
2022/02/09 20:02:48;;;;;;;8.10;4.03;;;12.50;71.80;;;;;;5037630;28;20108;-74
2022/02/09 20:05:21;;;;;;;6.13;3.67;;;12.50;71.80;;;;;;5029358;28;20021;-74
2022/02/09 20:07:47;;;;;;;8.07;3.65;;;12.50;71.80;;;;;;5028734;28;20067;-74
2022/02/09 20:10:13;;;;;;;7.53;3.63;;;12.40;71.60;;;;;;5032475;28;20307;-74
2022/02/09 20:12:40;;;;;;;4.07;3.42;;;12.50;71.80;;;;;;5048255;28;20025;-75
2022/02/09 20:15:11;;;;;;;6.53;3.65;;;12.40;71.70;;;;;;5048055;28;20040;-75
2022/02/09 20:17:39;;;;;;;5.78;3.50;;;12.50;71.90;;;;;;5046898;28;20021;-74
2022/02/09 20:20:08;;;;;;;6.93;4.07;;;12.50;71.90;;;;;;5047007;28;20499;-74
2022/02/09 20:22:35;;;;;;;8.18;3.58;;;12.40;71.70;;;;;;5029267;28;20025;-74
2022/02/09 20:25:01;;;;;;;6.28;3.90;;;12.40;71.70;;;;;;5046950;28;20554;-75
2022/02/09 20:27:29;;;;;;;4.78;3.47;;;12.40;71.70;;;;;;5046571;28;20451;-75
2022/02/09 20:29:56;;;;;;;5.78;4.20;;;12.40;71.70;;;;;;5046942;28;20060;-74
2022/02/09 20:32:29;;;;;;;4.95;3.35;;;12.40;71.80;;;;;;5046332;28;20132;-75
2022/02/09 20:34:57;;;;;;;;;;;12.40;71.80;;;;;;5029124;28;20037;-74
2022/02/09 20:37:26;;;;;;;4.18;3.15;;;12.40;71.70;;;;;;5028519;28;19916;-74
2022/02/09 20:40:06;;;;;;;4.53;3.05;;;12.40;71.70;;;;;;5028130;28;20040;-74
2022/02/09 20:42:32;;;;;;;5.78;3.25;;;12.40;71.70;;;;;;5046162;28;20049;-74
2022/02/09 20:45:16;;;;;;;3.90;3.17;;;12.40;71.70;;;;;;5028465;28;20029;-74
2022/02/09 20:47:45;;;;;;;5.72;2.85;;;12.40;71.70;;;;;;5046284;28;20055;-75
2022/02/09 20:50:11;;;;;;;4.40;2.80;;;12.30;71.60;;;;;;5046195;28;20029;-74
2022/02/09 20:52:37;;;;;;;5.38;3.03;;;12.30;72.10;;;;;;5046030;28;20534;-73
2022/02/09 20:55:04;;;;;;;4.45;2.42;;;12.30;71.60;;;;;;5032212;28;20470;-74
2022/02/09 20:57:32;;;;;;;4.65;2.60;;;12.30;71.60;;;;;;5025212;28;20527;-74
2022/02/09 21:00:07;;;;;;;4.13;2.13;;;12.30;71.60;;;;;;5026466;28;20029;-74
2022/02/09 21:05:58;;;;;;;3.63;2.38;;;12.30;71.60;;;;;;4982219;28;20427;-75
2022/02/09 21:13:57;;;;;;;4.13;2.20;;;12.20;71.40;;;;;;5048322;28;20044;-75
2022/02/09 21:16:42;;;;;;;3.20;1.85;;;12.20;71.50;;;;;;5047376;28;20036;-75
2022/02/09 21:19:35;;;;;;;2.90;2.00;;;12.20;71.40;;;;;;5046695;28;20091;-74
2022/02/09 21:49:50;;;;;;;3.22;1.90;;;11.90;71.00;;;;;;5029987;28;20461;-85
2022/02/09 22:54:26;;;;;;;2.13;1.67;;;11.20;71.20;;;;;;4965534;28;20098;-84
2022/02/09 22:56:29;;;;;;;3.03;1.73;;;11.20;71.20;;;;;;5028339;28;20104;-85
2022/02/09 22:58:56;;;;;;;2.90;1.67;;;11.20;71.20;;;;;;5032228;28;20064;-85
2022/02/09 23:01:37;;;;;;;2.47;1.60;;;11.10;71.00;;;;;;5006817;28;20021;-82
2022/02/09 23:09:41;;;;;;;2.67;1.45;;;11.10;71.10;;;;;;5036894;28;20029;-83
2022/02/09 23:12:15;;;;;;;2.35;1.27;;;11.10;71.10;;;;;;5047658;28;20029;-81
